Lydia, Louisiana
Current Conditions -  °F | °C
As of 10:53 PM on Wednesday 22 Oct 2014 (Local Time) from KARA Reporting Station
Clear Clear  
Wind Chill: 62°   Ceiling: Unl
Heat Index: 62°   Visibility: 10mi
Dew Point: 56°   Wind: 8mph
Humidity: 80%   Direction: 20°NNE
Pressure: 30.09"   Gusts: NA
Location:  29.92°N, 91.78°W
Report Text: KARA 230353Z AUTO 02007KT 10SM CLR 17/13 A3009 RMK AO2 SLP190 T01670133
Loading
Personal Weather Stations






























Interactive Weather Map
Tropical Storm Tracking
New forecast layout! Learn more

10-Day Weather Forecast

Advertisements
Track Severe Weather on mobile